Time;durP1;ratioP1;P1;durP2;ratioP2;P2;SDS_P1;SDS_P2;PMS_P1;PMS_P2;Temp;Humidity;BMP_temperature;BMP_pressure;BME280_temperature;BME280_humidity;BME280_pressure;Samples;Min_cycle;Max_cycle;Signal;HPM_P1;HPM_P2
2022/05/30 00:00:33;;;;;;;3.40;2.40;;;13.80;96.80;;;;;;5030246;28;20462;-50
2022/05/30 00:02:59;;;;;;;3.87;2.60;;;14.20;97.10;;;;;;5032130;28;20442;-51
2022/05/30 00:05:29;;;;;;;4.07;2.27;;;13.70;97.00;;;;;;5031785;28;20442;-51
2022/05/30 00:07:57;;;;;;;4.43;2.70;;;13.80;97.10;;;;;;5031572;28;20475;-50
2022/05/30 00:10:23;;;;;;;4.47;2.50;;;13.80;97.30;;;;;;5031207;28;20998;-51
2022/05/30 00:12:50;;;;;;;4.90;2.40;;;13.70;97.50;;;;;;5032073;28;20438;-50
2022/05/30 00:15:21;;;;;;;4.77;2.07;;;13.60;97.60;;;;;;5031804;28;20441;-50
2022/05/30 00:17:48;;;;;;;3.30;2.03;;;13.70;97.70;;;;;;5031718;28;20448;-52
2022/05/30 00:20:15;;;;;;;4.03;2.93;;;13.90;98.10;;;;;;5031417;28;20501;-51
2022/05/30 00:22:42;;;;;;;3.63;2.30;;;13.30;98.00;;;;;;5031583;28;20442;-51
2022/05/30 00:25:10;;;;;;;6.27;2.70;;;13.70;98.30;;;;;;5031583;28;20506;-51
2022/05/30 00:27:37;;;;;;;4.50;2.90;;;13.60;98.40;;;;;;5031494;28;20518;-50
2022/05/30 00:30:05;;;;;;;3.50;2.40;;;13.70;98.80;;;;;;5031114;28;20442;-51
2022/05/30 00:32:32;;;;;;;4.90;3.07;;;13.70;98.80;;;;;;5030147;28;20475;-50
2022/05/30 00:34:59;;;;;;;4.77;2.37;;;13.20;98.60;;;;;;5030339;28;20461;-50
2022/05/30 00:37:27;;;;;;;3.77;2.50;;;13.10;98.90;;;;;;5030185;28;20636;-51
2022/05/30 00:39:54;;;;;;;7.33;2.77;;;13.40;99.30;;;;;;5031109;28;20438;-50
2022/05/30 00:42:26;;;;;;;5.77;2.67;;;13.70;99.50;;;;;;5033045;28;20446;-50
2022/05/30 00:44:53;;;;;;;8.37;2.60;;;13.50;99.40;;;;;;5035471;28;20926;-51
2022/05/30 00:47:21;;;;;;;4.37;2.57;;;13.20;99.40;;;;;;5035226;28;20471;-51
2022/05/30 00:49:49;;;;;;;3.33;2.90;;;13.40;99.50;;;;;;5035020;28;20446;-51
2022/05/30 00:52:19;;;;;;;3.80;2.53;;;13.50;99.50;;;;;;5035249;28;20776;-51
2022/05/30 00:54:51;;;;;;;4.80;2.80;;;13.50;99.60;;;;;;5035284;28;20431;-52
2022/05/30 00:57:21;;;;;;;2.80;2.30;;;13.70;99.80;;;;;;5035182;28;20439;-51
2022/05/30 00:59:52;;;;;;;5.30;2.63;;;13.60;99.70;;;;;;5033445;28;20555;-52
2022/05/30 01:02:19;;;;;;;6.77;2.70;;;13.80;99.80;;;;;;5033665;28;21032;-51
2022/05/30 01:07:32;;;;;;;3.03;2.43;;;13.50;99.50;;;;;;5033574;28;20466;-51
2022/05/30 01:10:01;;;;;;;6.70;2.90;;;13.60;99.70;;;;;;5034256;28;20466;-49
2022/05/30 01:12:37;;;;;;;4.43;2.50;;;14.30;99.90;;;;;;5033386;28;20545;-51
2022/05/30 01:15:08;;;;;;;4.80;2.17;;;13.60;99.60;;;;;;5033556;28;20936;-51
2022/05/30 01:17:36;;;;;;;2.50;2.17;;;13.80;99.80;;;;;;5033522;28;20517;-49
2022/05/30 01:20:07;;;;;;;2.90;2.60;;;13.40;99.60;;;;;;5033064;28;20991;-50
2022/05/30 01:22:56;;;;;;;3.97;2.43;;;13.50;99.80;;;;;;5033419;28;20462;-49
2022/05/30 01:25:46;;;;;;;3.70;2.50;;;13.90;99.90;;;;;;5033760;28;20486;-49
2022/05/30 01:28:43;;;;;;;3.23;2.30;;;13.80;99.90;;;;;;5033266;28;20478;-51
2022/05/30 01:31:10;;;;;;;5.83;2.37;;;14.30;99.90;;;;;;5033043;28;20567;-51
2022/05/30 01:33:37;;;;;;;3.43;2.23;;;13.80;99.90;;;;;;5033291;28;20702;-50
2022/05/30 01:36:05;;;;;;;3.37;2.50;;;13.80;99.90;;;;;;5033015;28;20492;-49
2022/05/30 01:38:32;;;;;;;3.23;2.77;;;13.80;99.90;;;;;;5032899;28;20456;-51
2022/05/30 01:41:01;;;;;;;4.03;2.83;;;13.40;99.90;;;;;;5033137;28;20603;-49
2022/05/30 01:43:29;;;;;;;4.00;2.93;;;13.70;99.90;;;;;;5033009;28;20457;-49
2022/05/30 01:46:08;;;;;;;5.43;4.67;;;13.50;99.90;;;;;;5032794;28;20962;-51
2022/05/30 01:48:40;;;;;;;4.37;2.90;;;14.00;99.90;;;;;;5032622;28;20485;-50
2022/05/30 01:51:08;;;;;;;6.07;3.23;;;13.60;99.90;;;;;;5034261;28;20860;-49
2022/05/30 01:53:34;;;;;;;3.93;2.87;;;13.60;99.90;;;;;;5031733;28;20538;-50
2022/05/30 01:56:13;;;;;;;3.17;2.87;;;13.60;99.90;;;;;;5034243;28;20444;-49
2022/05/30 01:58:40;;;;;;;3.57;2.67;;;14.10;99.90;;;;;;5032345;28;20508;-52
2022/05/30 02:01:28;;;;;;;3.53;2.97;;;13.70;99.90;;;;;;5034013;28;20499;-52
2022/05/30 02:03:58;;;;;;;4.70;3.40;;;13.80;99.90;;;;;;5032817;28;20510;-51
2022/05/30 02:06:26;;;;;;;4.90;3.30;;;14.10;99.90;;;;;;5032484;28;20451;-52
2022/05/30 02:08:54;;;;;;;4.03;3.13;;;13.80;99.90;;;;;;5032070;28;20482;-51
2022/05/30 02:11:26;;;;;;;4.53;3.47;;;13.60;99.90;;;;;;5032407;28;20503;-51
2022/05/30 02:14:00;;;;;;;4.33;3.80;;;13.50;99.90;;;;;;5032369;28;20458;-52
2022/05/30 02:19:18;;;;;;;5.53;3.80;;;13.70;99.90;;;;;;5031858;28;20532;-51
2022/05/30 02:21:47;;;;;;;3.90;3.60;;;13.80;99.90;;;;;;5032448;28;20480;-51
2022/05/30 02:24:15;;;;;;;6.33;3.40;;;13.60;99.90;;;;;;5032405;28;21012;-48
2022/05/30 02:26:42;;;;;;;7.00;4.73;;;13.80;99.90;;;;;;5033625;28;20520;-49
2022/05/30 02:29:11;;;;;;;4.97;3.60;;;13.40;99.90;;;;;;5031860;28;20481;-50
2022/05/30 02:31:50;;;;;;;5.20;4.00;;;13.60;99.90;;;;;;5032104;28;20484;-50
2022/05/30 02:37:01;;;;;;;5.00;3.60;;;13.60;99.90;;;;;;5032104;28;20432;-51
2022/05/30 02:39:29;;;;;;;3.27;2.97;;;13.00;99.90;;;;;;5031685;28;20450;-50
2022/05/30 02:42:20;;;;;;;4.73;3.17;;;13.40;99.90;;;;;;5022771;28;20940;-51
2022/05/30 02:44:46;;;;;;;4.87;3.23;;;13.30;99.90;;;;;;5031965;28;20453;-50
2022/05/30 02:47:16;;;;;;;4.77;3.30;;;13.20;99.90;;;;;;5031811;28;20976;-50
2022/05/30 02:49:47;;;;;;;4.83;3.63;;;12.90;99.90;;;;;;5031224;28;20492;-50
2022/05/30 02:52:13;;;;;;;6.13;3.90;;;13.20;99.90;;;;;;5031590;28;20450;-51
2022/05/30 02:54:40;;;;;;;4.70;3.60;;;13.00;99.90;;;;;;5031661;28;20551;-50
2022/05/30 02:57:17;;;;;;;5.33;4.40;;;13.20;99.90;;;;;;5031641;28;20462;-50
2022/05/30 02:59:44;;;;;;;6.90;4.43;;;13.10;99.90;;;;;;5031075;28;20800;-51
2022/05/30 03:02:11;;;;;;;6.73;4.30;;;13.10;99.90;;;;;;5031685;28;20450;-51
2022/05/30 03:04:39;;;;;;;5.67;4.13;;;13.30;99.90;;;;;;5031327;28;20461;-49
2022/05/30 03:07:08;;;;;;;6.10;4.17;;;13.20;99.90;;;;;;5031267;28;20544;-50
2022/05/30 03:09:35;;;;;;;6.43;4.07;;;13.10;99.90;;;;;;5030950;28;20480;-49
2022/05/30 03:12:12;;;;;;;8.13;4.57;;;13.50;99.90;;;;;;5031439;28;20458;-52
2022/05/30 03:14:38;;;;;;;8.23;4.60;;;13.00;99.90;;;;;;5031309;28;20455;-51
2022/05/30 03:17:05;;;;;;;5.10;4.33;;;13.60;99.90;;;;;;5031003;28;20464;-49
2022/05/30 03:19:34;;;;;;;9.77;4.67;;;13.20;99.90;;;;;;5030501;28;20458;-51
2022/05/30 03:22:03;;;;;;;6.00;5.00;;;12.80;99.90;;;;;;5030973;28;21053;-51
2022/05/30 03:24:33;;;;;;;7.13;5.83;;;13.20;99.90;;;;;;5031160;28;20828;-50
2022/05/30 03:27:00;;;;;;;5.30;4.80;;;13.30;99.90;;;;;;5031141;28;20452;-50
2022/05/30 03:29:26;;;;;;;6.43;5.40;;;13.30;99.90;;;;;;5031943;28;21011;-51
2022/05/30 03:31:53;;;;;;;7.23;5.70;;;13.70;99.90;;;;;;5032862;28;20457;-50
2022/05/30 03:34:21;;;;;;;7.17;5.37;;;13.70;99.90;;;;;;5031105;28;20546;-51
2022/05/30 03:36:47;;;;;;;6.70;5.77;;;13.40;99.90;;;;;;5031016;28;20455;-49
2022/05/30 03:39:31;;;;;;;8.90;5.70;;;13.20;99.90;;;;;;5030308;28;20846;-49
2022/05/30 03:42:27;;;;;;;6.60;5.33;;;12.70;99.90;;;;;;5012320;28;20437;-51
2022/05/30 03:44:59;;;;;;;6.97;5.10;;;12.90;99.90;;;;;;5030677;28;20558;-50
2022/05/30 03:47:26;;;;;;;7.97;4.73;;;13.40;99.90;;;;;;5030494;28;20460;-50
2022/05/30 03:49:59;;;;;;;6.10;5.07;;;12.90;99.90;;;;;;5030091;28;20558;-51
2022/05/30 03:52:26;;;;;;;6.93;4.93;;;13.00;99.90;;;;;;5030446;28;20510;-50
2022/05/30 03:54:54;;;;;;;6.27;4.63;;;13.10;99.90;;;;;;5030452;28;20497;-49
2022/05/30 03:57:21;;;;;;;6.27;5.07;;;13.40;99.90;;;;;;5030345;28;20827;-51
2022/05/30 03:59:48;;;;;;;8.13;5.07;;;12.80;99.90;;;;;;5030104;28;20487;-50
2022/05/30 04:02:15;;;;;;;4.73;4.33;;;13.10;99.90;;;;;;5030119;28;20445;-51
2022/05/30 04:04:42;;;;;;;5.07;4.63;;;13.50;99.90;;;;;;5030212;28;20447;-51
2022/05/30 04:07:08;;;;;;;6.37;4.37;;;13.50;99.90;;;;;;5031659;28;20438;-50
2022/05/30 04:09:56;;;;;;;6.10;4.73;;;13.40;99.90;;;;;;5030871;28;20630;-51
2022/05/30 04:12:46;;;;;;;6.83;5.07;;;13.70;99.90;;;;;;5031462;28;20843;-49
2022/05/30 04:15:38;;;;;;;9.43;5.87;;;13.20;99.90;;;;;;5031391;28;20448;-49
2022/05/30 04:18:06;;;;;;;10.47;6.30;;;13.70;99.90;;;;;;5029536;28;20550;-49
2022/05/30 04:20:33;;;;;;;8.80;6.70;;;13.50;99.90;;;;;;5031018;28;20450;-50
2022/05/30 04:23:00;;;;;;;8.77;6.73;;;13.30;99.90;;;;;;5030250;28;20634;-50
2022/05/30 04:25:43;;;;;;;12.20;7.97;;;13.30;99.90;;;;;;5030194;28;20539;-49
2022/05/30 04:28:10;;;;;;;10.10;6.63;;;13.60;99.90;;;;;;5029833;28;20768;-50
2022/05/30 04:30:41;;;;;;;13.93;7.93;;;13.40;99.90;;;;;;5029768;28;20528;-50
2022/05/30 04:33:08;;;;;;;8.87;6.17;;;12.80;99.90;;;;;;5029808;28;20458;-49
2022/05/30 04:35:35;;;;;;;16.63;8.20;;;13.30;99.90;;;;;;5030048;28;20481;-49
2022/05/30 04:38:01;;;;;;;9.57;6.43;;;13.20;99.90;;;;;;5029758;28;20463;-50
2022/05/30 04:40:47;;;;;;;10.70;5.80;;;13.70;99.90;;;;;;5029651;28;20459;-50
2022/05/30 04:43:20;;;;;;;12.57;5.83;;;13.60;99.90;;;;;;5031571;28;20536;-50
2022/05/30 04:46:11;;;;;;;13.37;6.53;;;13.40;99.90;;;;;;5019764;28;20523;-50
2022/05/30 04:48:59;;;;;;;12.97;6.47;;;13.30;99.90;;;;;;5030914;28;20497;-50
2022/05/30 04:51:25;;;;;;;13.00;5.73;;;13.60;99.90;;;;;;5029548;28;20445;-49
2022/05/30 04:53:53;;;;;;;15.23;5.97;;;13.60;99.90;;;;;;5029678;28;20557;-50
2022/05/30 04:56:50;;;;;;;11.83;6.17;;;13.60;99.90;;;;;;5029388;28;20828;-50
2022/05/30 04:59:26;;;;;;;11.83;5.83;;;13.70;99.90;;;;;;5029403;28;20456;-50
2022/05/30 05:02:00;;;;;;;14.47;5.83;;;13.10;99.90;;;;;;5029253;28;20764;-50
2022/05/30 05:04:28;;;;;;;24.73;7.03;;;13.80;99.90;;;;;;5029429;28;20454;-49
2022/05/30 05:06:55;;;;;;;10.27;5.03;;;13.90;99.90;;;;;;5029241;28;20450;-50
2022/05/30 05:09:31;;;;;;;13.00;5.87;;;13.30;99.90;;;;;;5029039;28;20982;-49
2022/05/30 05:12:14;;;;;;;12.60;5.80;;;13.70;99.90;;;;;;5030725;28;20446;-49
2022/05/30 05:15:01;;;;;;;13.23;5.60;;;13.80;99.90;;;;;;5019379;28;20442;-49
2022/05/30 05:17:46;;;;;;;14.00;6.90;;;13.90;99.90;;;;;;5030540;28;20485;-49
2022/05/30 05:20:14;;;;;;;9.40;4.73;;;13.60;99.90;;;;;;5029027;28;20558;-50
2022/05/30 05:22:41;;;;;;;12.20;5.43;;;13.50;99.90;;;;;;5029159;28;20512;-50
2022/05/30 05:25:09;;;;;;;17.20;5.83;;;13.80;99.90;;;;;;5029191;28;21016;-52
2022/05/30 05:27:40;;;;;;;16.17;5.90;;;13.50;99.90;;;;;;5030535;28;20468;-52
2022/05/30 05:30:10;;;;;;;13.00;7.00;;;14.10;99.90;;;;;;5031559;28;20493;-52
2022/05/30 05:32:37;;;;;;;16.17;7.37;;;13.70;99.90;;;;;;5032688;28;20474;-52
2022/05/30 05:35:07;;;;;;;15.43;7.10;;;13.80;99.90;;;;;;5032603;28;20786;-51
2022/05/30 05:37:34;;;;;;;13.07;8.13;;;13.80;99.90;;;;;;5032709;28;20450;-52
2022/05/30 05:40:24;;;;;;;15.00;7.90;;;14.00;99.90;;;;;;5033297;28;20897;-53
2022/05/30 05:42:52;;;;;;;15.23;8.73;;;14.20;99.90;;;;;;5032044;28;20537;-50
2022/05/30 05:45:19;;;;;;;17.80;8.00;;;13.60;99.90;;;;;;5032277;28;20934;-51
2022/05/30 05:47:45;;;;;;;13.87;6.17;;;13.90;99.90;;;;;;5031718;28;20442;-51
2022/05/30 05:50:12;;;;;;;11.93;6.50;;;14.00;99.90;;;;;;5031715;28;20529;-50
2022/05/30 05:52:40;;;;;;;11.10;6.40;;;13.60;99.90;;;;;;5032319;28;20453;-51
2022/05/30 05:55:14;;;;;;;11.20;6.00;;;14.20;99.90;;;;;;5031827;28;20482;-51
2022/05/30 05:57:40;;;;;;;10.20;5.17;;;13.80;99.90;;;;;;5031542;28;20556;-52
2022/05/30 06:00:09;;;;;;;13.20;6.23;;;14.10;99.90;;;;;;5032982;28;20566;-51
2022/05/30 06:02:45;;;;;;;8.80;5.00;;;14.20;99.90;;;;;;5033191;28;20423;-51
2022/05/30 06:05:14;;;;;;;12.93;6.17;;;14.20;99.90;;;;;;5031470;28;20458;-52
2022/05/30 06:08:00;;;;;;;10.93;6.83;;;14.20;99.90;;;;;;5033672;28;20528;-51
2022/05/30 06:11:04;;;;;;;16.77;6.13;;;14.10;99.90;;;;;;5030956;28;20623;-51
2022/05/30 06:13:22;;;;;;;13.00;7.10;;;13.80;99.90;;;;;;5032043;28;20433;-52
2022/05/30 06:15:50;;;;;;;10.70;6.30;;;14.20;99.90;;;;;;5031774;28;20468;-51
2022/05/30 06:18:25;;;;;;;11.77;6.10;;;14.50;99.90;;;;;;5032906;28;20839;-52
2022/05/30 06:20:57;;;;;;;8.50;6.00;;;13.90;99.90;;;;;;5031606;28;20473;-51
2022/05/30 06:23:24;;;;;;;13.30;7.10;;;14.50;99.90;;;;;;5031404;28;20444;-52
2022/05/30 06:26:12;;;;;;;13.13;7.50;;;13.90;99.90;;;;;;5032476;28;20449;-51
2022/05/30 06:28:50;;;;;;;16.60;6.23;;;14.30;99.90;;;;;;5031028;28;20545;-51
2022/05/30 06:31:20;;;;;;;10.73;6.50;;;14.50;99.90;;;;;;5031156;28;20470;-51
2022/05/30 06:33:51;;;;;;;11.63;6.33;;;14.50;99.90;;;;;;5031248;28;20454;-52
2022/05/30 06:36:38;;;;;;;12.30;6.10;;;14.90;99.90;;;;;;5030817;28;20453;-51
2022/05/30 06:39:05;;;;;;;9.70;6.30;;;14.50;99.90;;;;;;5030397;28;20638;-52
2022/05/30 06:41:36;;;;;;;11.43;6.40;;;14.60;99.90;;;;;;5030871;28;20482;-51
2022/05/30 06:44:08;;;;;;;10.90;6.07;;;15.00;99.90;;;;;;5030713;28;20938;-51
2022/05/30 06:46:55;;;;;;;10.90;5.67;;;14.30;99.90;;;;;;5032321;28;20516;-51
2022/05/30 06:49:41;;;;;;;7.33;5.20;;;14.40;99.90;;;;;;5031986;28;20628;-51
2022/05/30 06:52:12;;;;;;;11.07;6.73;;;14.30;99.90;;;;;;5030877;28;20458;-53
2022/05/30 06:54:39;;;;;;;13.47;6.77;;;14.50;99.90;;;;;;5030624;28;20464;-52
2022/05/30 06:59:53;;;;;;;16.63;6.47;;;14.50;99.90;;;;;;5030730;28;20493;-51
2022/05/30 07:02:21;;;;;;;10.30;5.97;;;14.70;99.90;;;;;;5030683;28;20447;-52
2022/05/30 07:05:07;;;;;;;13.30;5.30;;;15.00;99.90;;;;;;5032125;28;20898;-51
2022/05/30 07:07:55;;;;;;;14.93;6.43;;;14.60;99.90;;;;;;5032370;28;20474;-52
2022/05/30 07:10:35;;;;;;;13.70;6.50;;;14.70;99.90;;;;;;5030385;28;21000;-51
2022/05/30 07:13:13;;;;;;;14.77;6.10;;;15.00;99.90;;;;;;5030626;28;21001;-51
2022/05/30 07:15:41;;;;;;;13.83;6.17;;;14.90;99.90;;;;;;5030782;28;20874;-51
2022/05/30 07:18:13;;;;;;;13.93;5.27;;;14.80;99.90;;;;;;5030216;28;20461;-51
2022/05/30 07:20:40;;;;;;;9.43;5.17;;;15.00;99.90;;;;;;5031547;28;20449;-52
2022/05/30 07:23:37;;;;;;;6.63;4.73;;;15.30;99.90;;;;;;4994860;28;20946;-51
2022/05/30 07:26:30;;;;;;;9.33;4.33;;;15.60;99.90;;;;;;5031499;28;20459;-52
2022/05/30 07:29:16;;;;;;;9.70;5.23;;;15.60;99.90;;;;;;5031866;28;20836;-52
2022/05/30 07:32:02;;;;;;;15.57;5.20;;;15.50;99.90;;;;;;5032196;28;20439;-51
2022/05/30 07:34:48;;;;;;;11.13;4.90;;;15.60;99.90;;;;;;5032104;28;20426;-51
2022/05/30 07:37:33;;;;;;;11.07;5.10;;;14.60;99.90;;;;;;5031476;28;20424;-51
2022/05/30 07:40:14;;;;;;;10.50;5.40;;;14.80;99.90;;;;;;5029904;28;20481;-51
2022/05/30 07:42:56;;;;;;;14.87;5.20;;;14.90;99.90;;;;;;5030655;28;20854;-52
2022/05/30 07:45:32;;;;;;;15.87;5.13;;;14.90;99.90;;;;;;5030551;28;20492;-51
2022/05/30 07:48:14;;;;;;;10.53;4.70;;;15.40;99.90;;;;;;5029966;28;20454;-51
2022/05/30 07:50:55;;;;;;;9.70;5.07;;;15.70;99.90;;;;;;5031662;28;20596;-52
2022/05/30 07:53:26;;;;;;;10.30;5.00;;;15.30;99.90;;;;;;5029760;28;20790;-51
2022/05/30 07:55:59;;;;;;;9.57;4.80;;;15.80;99.90;;;;;;5030289;28;20556;-52
2022/05/30 07:58:27;;;;;;;13.57;5.07;;;15.50;99.90;;;;;;5029688;28;20454;-52
2022/05/30 08:00:55;;;;;;;9.50;5.07;;;15.70;99.90;;;;;;5029899;28;20470;-52
2022/05/30 08:03:26;;;;;;;11.17;4.83;;;15.20;99.80;;;;;;5029874;28;20518;-51
2022/05/30 08:06:16;;;;;;;12.60;5.57;;;15.50;99.80;;;;;;5030135;28;20471;-51
2022/05/30 08:09:15;;;;;;;12.57;5.50;;;15.30;99.60;;;;;;5019240;28;20446;-51
2022/05/30 08:12:02;;;;;;;7.90;4.70;;;15.40;99.50;;;;;;5027126;28;20981;-52
2022/05/30 08:14:49;;;;;;;7.20;4.50;;;15.70;99.60;;;;;;5031659;28;20502;-51
2022/05/30 08:17:15;;;;;;;12.27;4.80;;;15.30;99.40;;;;;;5030241;28;20546;-52
2022/05/30 08:19:42;;;;;;;11.30;4.47;;;15.10;99.00;;;;;;5029638;28;20447;-51
2022/05/30 08:22:12;;;;;;;7.37;4.10;;;15.50;99.00;;;;;;5030103;28;20444;-52
2022/05/30 08:24:41;;;;;;;9.17;4.10;;;15.50;98.50;;;;;;5031322;28;20512;-52
2022/05/30 08:27:14;;;;;;;13.47;4.80;;;15.90;98.30;;;;;;5030105;28;20442;-51
2022/05/30 08:29:48;;;;;;;10.57;4.50;;;15.80;98.00;;;;;;5029290;28;20475;-53
2022/05/30 08:32:15;;;;;;;9.77;3.90;;;15.90;97.40;;;;;;5028398;28;20451;-55
2022/05/30 08:34:58;;;;;;;15.67;4.10;;;16.20;97.40;;;;;;5030517;28;20493;-52
2022/05/30 08:37:30;;;;;;;11.80;4.53;;;16.10;97.00;;;;;;5029537;28;20451;-51
2022/05/30 08:42:43;;;;;;;6.90;3.90;;;16.10;96.00;;;;;;5029484;28;20513;-53
2022/05/30 08:45:20;;;;;;;7.17;4.30;;;15.90;95.80;;;;;;5030928;28;20963;-52
2022/05/30 08:48:01;;;;;;;10.00;3.80;;;16.10;95.70;;;;;;5029034;28;20479;-52
2022/05/30 08:50:35;;;;;;;11.30;5.30;;;16.00;95.40;;;;;;5029012;28;20480;-52
2022/05/30 08:53:38;;;;;;;9.60;4.57;;;16.30;95.50;;;;;;5029600;28;20455;-53
2022/05/30 08:56:12;;;;;;;10.50;4.43;;;16.30;95.60;;;;;;5029806;28;20505;-52
2022/05/30 08:59:31;;;;;;;11.60;4.60;;;16.90;95.50;;;;;;5029489;28;21010;-51
2022/05/30 09:02:03;;;;;;;8.87;4.00;;;16.60;95.50;;;;;;5029795;28;20480;-52
2022/05/30 09:04:39;;;;;;;7.07;3.80;;;17.00;95.40;;;;;;5032922;28;20539;-53
2022/05/30 09:07:10;;;;;;;19.03;4.43;;;16.50;94.80;;;;;;5033234;28;20455;-52
2022/05/30 09:09:46;;;;;;;8.87;4.60;;;16.50;94.60;;;;;;5032929;28;20463;-52
2022/05/30 09:12:35;;;;;;;7.27;3.87;;;16.40;94.60;;;;;;5033905;28;20461;-54
2022/05/30 09:15:26;;;;;;;7.67;3.27;;;16.80;94.60;;;;;;5035368;28;20443;-52
2022/05/30 09:18:04;;;;;;;12.47;3.33;;;16.90;93.90;;;;;;5033446;28;20485;-53
2022/05/30 09:20:32;;;;;;;3.97;2.20;;;17.20;93.60;;;;;;5032635;28;20495;-53
2022/05/30 09:23:02;;;;;;;6.00;3.00;;;16.90;92.90;;;;;;5033109;28;20940;-53
2022/05/30 09:25:57;;;;;;;8.00;3.10;;;16.90;92.70;;;;;;5033231;28;20484;-53
2022/05/30 09:28:45;;;;;;;4.70;2.50;;;17.30;92.60;;;;;;5032405;28;20819;-52
2022/05/30 09:31:59;;;;;;;6.13;2.63;;;17.00;92.50;;;;;;5033565;28;20489;-52
2022/05/30 09:34:46;;;;;;;5.77;2.80;;;16.90;92.30;;;;;;5033896;28;20428;-52
2022/05/30 09:37:35;;;;;;;8.67;3.40;;;16.60;91.90;;;;;;5033670;28;20503;-51
2022/05/30 09:40:21;;;;;;;5.20;2.80;;;16.50;92.10;;;;;;5031914;28;20880;-53
2022/05/30 09:43:24;;;;;;;8.50;2.83;;;16.60;92.40;;;;;;5032364;28;20609;-53
2022/05/30 09:45:51;;;;;;;6.43;2.57;;;16.10;92.20;;;;;;5030785;28;21113;-53
2022/05/30 09:48:38;;;;;;;5.40;2.77;;;16.20;92.30;;;;;;5021810;28;20449;-52
2022/05/30 09:51:30;;;;;;;6.63;2.37;;;16.00;92.00;;;;;;5032498;28;20507;-53
2022/05/30 09:53:59;;;;;;;4.70;2.50;;;16.20;91.70;;;;;;5032182;28;20550;-52
2022/05/30 09:56:28;;;;;;;3.90;2.20;;;16.60;91.80;;;;;;5032328;28;20515;-53
2022/05/30 09:59:05;;;;;;;8.03;2.60;;;16.70;91.20;;;;;;5032389;28;20489;-52
2022/05/30 10:01:52;;;;;;;6.50;2.87;;;16.10;90.90;;;;;;5032197;28;20476;-51
2022/05/30 10:04:35;;;;;;;8.70;2.47;;;16.60;91.30;;;;;;5032531;28;21018;-52
2022/05/30 10:07:08;;;;;;;6.57;2.43;;;16.80;90.90;;;;;;5033114;28;20479;-51
2022/05/30 10:09:59;;;;;;;6.20;3.23;;;16.50;91.00;;;;;;5031774;28;20502;-52
2022/05/30 10:12:37;;;;;;;3.73;1.90;;;17.10;90.30;;;;;;5072675;23;20582;-46
2022/05/30 10:15:32;;;;;;;6.63;3.10;;;17.10;89.80;;;;;;5050679;28;20505;-46
2022/05/30 10:18:25;;;;;;;5.07;2.33;;;17.20;87.50;;;;;;5050568;28;20558;-49
2022/05/30 10:21:03;;;;;;;4.80;2.40;;;17.30;86.00;;;;;;5050842;28;20467;-48
2022/05/30 10:30:35;;;;;;;6.67;2.83;;;18.10;85.30;;;;;;5050978;28;20459;-46
2022/05/30 10:33:55;;;;;;;5.27;2.30;;;17.30;84.60;;;;;;5049213;28;20780;-47
2022/05/30 10:36:30;;;;;;;3.50;1.53;;;17.70;84.70;;;;;;5050406;28;20483;-45
2022/05/30 10:39:07;;;;;;;4.53;2.10;;;17.70;84.80;;;;;;5051225;28;20940;-45
2022/05/30 10:41:42;;;;;;;2.80;1.70;;;17.70;83.10;;;;;;5050438;28;20506;-46
2022/05/30 10:44:14;;;;;;;5.90;1.90;;;18.20;83.70;;;;;;5050285;28;20453;-47
2022/05/30 10:46:53;;;;;;;4.87;1.70;;;18.20;82.40;;;;;;5050767;28;20453;-46
2022/05/30 10:49:31;;;;;;;3.30;1.77;;;18.30;80.10;;;;;;5050258;28;20476;-46
2022/05/30 10:52:01;;;;;;;5.80;2.40;;;18.50;79.70;;;;;;5050095;28;20489;-47
2022/05/30 10:54:34;;;;;;;3.17;2.20;;;18.70;79.60;;;;;;5050188;28;20817;-47
2022/05/30 10:57:16;;;;;;;4.77;1.67;;;18.80;77.80;;;;;;5050548;28;20453;-46
2022/05/30 10:59:46;;;;;;;4.53;1.40;;;19.00;77.30;;;;;;5050034;28;20456;-48
2022/05/30 11:02:25;;;;;;;5.30;1.70;;;19.30;78.00;;;;;;5049780;28;20482;-48
2022/05/30 11:04:59;;;;;;;3.80;1.73;;;19.40;77.00;;;;;;5051301;28;20891;-45
2022/05/30 11:07:46;;;;;;;2.67;1.20;;;18.80;74.90;;;;;;5051271;28;20434;-47
2022/05/30 11:10:25;;;;;;;6.80;2.03;;;19.30;74.40;;;;;;5049288;28;20449;-47
2022/05/30 11:13:00;;;;;;;6.67;2.00;;;19.10;74.30;;;;;;5049918;28;20474;-46
2022/05/30 11:15:34;;;;;;;2.63;1.40;;;19.20;74.60;;;;;;5050221;28;20509;-47
2022/05/30 11:18:30;;;;;;;5.80;1.83;;;19.00;73.00;;;;;;5051583;28;20507;-46
2022/05/30 11:21:29;;;;;;;3.87;2.13;;;19.00;73.30;;;;;;5050220;28;20527;-47
2022/05/30 11:24:01;;;;;;;3.67;1.33;;;18.70;72.20;;;;;;5050158;28;20811;-48
2022/05/30 11:26:58;;;;;;;3.10;1.50;;;19.10;70.50;;;;;;5051879;28;20942;-48
2022/05/30 11:30:03;;;;;;;2.83;1.40;;;19.20;69.60;;;;;;5052202;28;20525;-45
2022/05/30 11:33:03;;;;;;;2.13;1.30;;;18.50;70.40;;;;;;5026829;28;20490;-47
2022/05/30 11:35:34;;;;;;;3.00;1.43;;;18.50;71.30;;;;;;5048026;28;20458;-45
2022/05/30 11:38:20;;;;;;;3.37;1.90;;;19.10;72.00;;;;;;5050203;28;20462;-46
2022/05/30 11:40:57;;;;;;;6.87;2.17;;;18.60;70.40;;;;;;5050999;28;20458;-46
2022/05/30 11:43:42;;;;;;;4.57;2.03;;;19.00;71.60;;;;;;5052421;28;20443;-46
2022/05/30 11:46:19;;;;;;;5.30;1.77;;;18.70;71.10;;;;;;5050814;28;20452;-46
2022/05/30 11:48:56;;;;;;;4.10;1.53;;;18.60;72.00;;;;;;5048889;28;20464;-45
2022/05/30 11:51:37;;;;;;;4.07;1.97;;;18.80;72.40;;;;;;5050774;28;20480;-46
2022/05/30 11:54:24;;;;;;;4.83;2.27;;;18.50;72.60;;;;;;5051335;28;20435;-48
2022/05/30 11:57:05;;;;;;;4.10;2.07;;;18.90;73.50;;;;;;5051148;28;20913;-47
2022/05/30 11:59:47;;;;;;;3.57;1.90;;;18.90;73.20;;;;;;5051014;28;20444;-46
2022/05/30 12:02:18;;;;;;;3.30;2.10;;;19.10;73.10;;;;;;5050465;28;20468;-47
2022/05/30 12:05:26;;;;;;;4.50;1.90;;;19.90;73.90;;;;;;5050923;28;20429;-47
2022/05/30 12:08:27;;;;;;;3.47;2.20;;;19.00;72.20;;;;;;5050306;28;20924;-47
2022/05/30 12:11:09;;;;;;;6.53;2.40;;;19.00;72.50;;;;;;5046186;28;20489;-46
2022/05/30 12:13:54;;;;;;;8.57;1.83;;;18.80;72.60;;;;;;5051631;28;20445;-46
2022/05/30 12:16:27;;;;;;;4.00;2.03;;;18.90;71.90;;;;;;5051666;28;20448;-47
2022/05/30 12:24:56;;;;;;;4.50;1.40;;;18.60;71.10;;;;;;5050183;28;20425;-46
2022/05/30 12:27:39;;;;;;;4.87;2.60;;;18.60;71.60;;;;;;5050239;28;20516;-48
2022/05/30 12:30:14;;;;;;;5.30;2.00;;;18.90;72.00;;;;;;5049655;28;21022;-45
2022/05/30 12:32:44;;;;;;;3.63;1.57;;;18.60;72.20;;;;;;5050120;28;20516;-47
2022/05/30 12:35:30;;;;;;;4.73;1.90;;;18.80;73.20;;;;;;5050065;28;20502;-46
2022/05/30 12:38:13;;;;;;;4.60;1.67;;;18.30;72.00;;;;;;5050746;28;20428;-45
2022/05/30 12:40:44;;;;;;;2.50;1.37;;;18.30;71.30;;;;;;5053292;28;20449;-48
2022/05/30 12:43:35;;;;;;;4.07;1.50;;;18.70;70.90;;;;;;5053798;28;21017;-45
2022/05/30 12:46:12;;;;;;;4.90;1.90;;;18.30;70.80;;;;;;5053806;28;20432;-46
2022/05/30 12:48:44;;;;;;;2.87;2.07;;;18.20;71.30;;;;;;5053531;28;20630;-47
2022/05/30 12:51:22;;;;;;;5.47;1.57;;;18.70;71.70;;;;;;5052023;28;20465;-46
2022/05/30 12:54:13;;;;;;;3.70;2.20;;;18.80;72.00;;;;;;5053796;28;20443;-48
2022/05/30 12:57:07;;;;;;;4.23;1.77;;;19.00;70.90;;;;;;5053685;28;20532;-47
2022/05/30 12:59:55;;;;;;;3.90;2.03;;;19.00;69.50;;;;;;5053768;28;20460;-46
2022/05/30 13:02:46;;;;;;;4.53;2.10;;;18.50;69.10;;;;;;5053290;28;20459;-47
2022/05/30 13:05:25;;;;;;;2.50;1.90;;;18.90;68.90;;;;;;5051998;28;20454;-47
2022/05/30 13:07:52;;;;;;;7.17;2.30;;;18.50;67.30;;;;;;5054014;28;20917;-47
2022/05/30 13:10:18;;;;;;;3.40;1.87;;;18.70;68.30;;;;;;5053126;28;20453;-47
2022/05/30 13:12:56;;;;;;;4.40;2.47;;;18.90;67.90;;;;;;5052905;28;20492;-46
2022/05/30 13:15:35;;;;;;;3.03;1.83;;;18.90;67.90;;;;;;5051539;28;20460;-46
2022/05/30 13:18:06;;;;;;;3.23;2.00;;;18.90;67.80;;;;;;5053311;28;20898;-46
2022/05/30 13:20:44;;;;;;;3.40;1.50;;;19.10;67.80;;;;;;5052625;28;20446;-47
2022/05/30 13:23:12;;;;;;;2.50;1.50;;;19.20;67.20;;;;;;5052887;28;20482;-46
2022/05/30 13:25:41;;;;;;;3.93;2.03;;;18.70;67.30;;;;;;5052841;28;20492;-46
2022/05/30 13:28:12;;;;;;;4.87;1.90;;;19.10;67.90;;;;;;5053357;28;20453;-45
2022/05/30 13:30:40;;;;;;;4.77;1.60;;;18.50;66.50;;;;;;5052091;28;20429;-47
2022/05/30 13:33:12;;;;;;;4.83;2.13;;;18.70;65.90;;;;;;5052771;28;20485;-46
2022/05/30 13:35:40;;;;;;;3.03;1.70;;;18.90;65.80;;;;;;5051389;28;20871;-48
2022/05/30 13:38:11;;;;;;;2.53;1.70;;;19.00;66.40;;;;;;5052263;28;20434;-48
2022/05/30 13:40:38;;;;;;;4.30;1.80;;;18.60;65.70;;;;;;5050727;28;20449;-47
2022/05/30 13:43:07;;;;;;;3.53;1.90;;;19.20;66.00;;;;;;5052855;28;20434;-47
2022/05/30 13:45:38;;;;;;;3.30;1.73;;;18.90;65.70;;;;;;5052648;28;20437;-45
2022/05/30 13:48:08;;;;;;;4.47;2.50;;;18.80;64.80;;;;;;5052820;28;20464;-46
2022/05/30 13:50:47;;;;;;;3.57;1.20;;;19.20;65.40;;;;;;5050709;28;20427;-47
2022/05/30 13:53:15;;;;;;;2.63;1.20;;;19.10;63.80;;;;;;5052349;28;20496;-46